sensor_id;sensor_type;location;lat;lon;timestamp;P1;durP1;ratioP1;P2;durP2;ratioP2
3873;SDS011;1952;50.872;6.692;2023-04-28T00:29:46;10.30;;;9.30;;
3873;SDS011;1952;50.872;6.692;2023-04-28T00:32:14;9.97;;;8.97;;
3873;SDS011;1952;50.872;6.692;2023-04-28T00:34:42;9.73;;;8.07;;
3873;SDS011;1952;50.872;6.692;2023-04-28T00:37:10;8.57;;;7.70;;
3873;SDS011;1952;50.872;6.692;2023-04-28T00:39:38;8.20;;;7.50;;
3873;SDS011;1952;50.872;6.692;2023-04-28T00:42:06;8.43;;;7.50;;
3873;SDS011;1952;50.872;6.692;2023-04-28T00:44:35;9.43;;;8.20;;
3873;SDS011;1952;50.872;6.692;2023-04-28T00:47:04;12.20;;;8.77;;
3873;SDS011;1952;50.872;6.692;2023-04-28T00:49:32;7.40;;;6.80;;
3873;SDS011;1952;50.872;6.692;2023-04-28T00:52:03;10.73;;;8.80;;
3873;SDS011;1952;50.872;6.692;2023-04-28T00:54:32;11.03;;;8.40;;
3873;SDS011;1952;50.872;6.692;2023-04-28T00:57:00;8.70;;;7.80;;
3873;SDS011;1952;50.872;6.692;2023-04-28T00:59:30;7.73;;;7.03;;
3873;SDS011;1952;50.872;6.692;2023-04-28T01:01:58;8.80;;;7.50;;
3873;SDS011;1952;50.872;6.692;2023-04-28T01:04:29;11.53;;;8.50;;
3873;SDS011;1952;50.872;6.692;2023-04-28T01:06:57;7.50;;;6.77;;
3873;SDS011;1952;50.872;6.692;2023-04-28T01:09:27;12.13;;;6.97;;
3873;SDS011;1952;50.872;6.692;2023-04-28T01:11:55;7.20;;;6.53;;
3873;SDS011;1952;50.872;6.692;2023-04-28T01:14:23;8.70;;;7.23;;
3873;SDS011;1952;50.872;6.692;2023-04-28T01:16:52;8.00;;;7.20;;
3873;SDS011;1952;50.872;6.692;2023-04-28T01:19:20;8.73;;;7.93;;
3873;SDS011;1952;50.872;6.692;2023-04-28T01:21:50;7.37;;;6.63;;
3873;SDS011;1952;50.872;6.692;2023-04-28T01:24:20;10.43;;;8.87;;
3873;SDS011;1952;50.872;6.692;2023-04-28T01:26:48;9.57;;;7.70;;
3873;SDS011;1952;50.872;6.692;2023-04-28T01:29:16;6.83;;;5.70;;
3873;SDS011;1952;50.872;6.692;2023-04-28T01:31:44;6.43;;;5.83;;
3873;SDS011;1952;50.872;6.692;2023-04-28T01:34:13;8.83;;;6.23;;
3873;SDS011;1952;50.872;6.692;2023-04-28T01:36:41;7.60;;;6.90;;
3873;SDS011;1952;50.872;6.692;2023-04-28T01:39:09;6.90;;;5.10;;
3873;SDS011;1952;50.872;6.692;2023-04-28T01:41:39;6.33;;;5.73;;
3873;SDS011;1952;50.872;6.692;2023-04-28T01:44:07;5.93;;;5.43;;
3873;SDS011;1952;50.872;6.692;2023-04-28T01:46:35;9.77;;;6.43;;
3873;SDS011;1952;50.872;6.692;2023-04-28T01:49:03;7.07;;;6.30;;
3873;SDS011;1952;50.872;6.692;2023-04-28T01:51:31;6.73;;;6.10;;
3873;SDS011;1952;50.872;6.692;2023-04-28T01:53:59;7.47;;;5.50;;
3873;SDS011;1952;50.872;6.692;2023-04-28T01:56:28;6.03;;;5.43;;
3873;SDS011;1952;50.872;6.692;2023-04-28T01:58:57;5.90;;;5.30;;
3873;SDS011;1952;50.872;6.692;2023-04-28T02:01:25;6.50;;;5.90;;
3873;SDS011;1952;50.872;6.692;2023-04-28T02:03:54;5.90;;;5.40;;
3873;SDS011;1952;50.872;6.692;2023-04-28T02:06:22;7.67;;;6.73;;
3873;SDS011;1952;50.872;6.692;2023-04-28T02:08:52;7.70;;;7.00;;
3873;SDS011;1952;50.872;6.692;2023-04-28T02:11:20;9.63;;;8.10;;
3873;SDS011;1952;50.872;6.692;2023-04-28T02:13:48;8.53;;;7.73;;
3873;SDS011;1952;50.872;6.692;2023-04-28T02:16:18;7.40;;;6.80;;
3873;SDS011;1952;50.872;6.692;2023-04-28T02:18:46;7.90;;;7.20;;
3873;SDS011;1952;50.872;6.692;2023-04-28T02:21:14;12.53;;;7.10;;
3873;SDS011;1952;50.872;6.692;2023-04-28T02:23:42;8.50;;;6.40;;
3873;SDS011;1952;50.872;6.692;2023-04-28T02:26:10;7.37;;;6.33;;
3873;SDS011;1952;50.872;6.692;2023-04-28T02:28:38;7.90;;;6.97;;
3873;SDS011;1952;50.872;6.692;2023-04-28T02:31:07;6.27;;;5.73;;
3873;SDS011;1952;50.872;6.692;2023-04-28T02:33:37;7.13;;;6.43;;
3873;SDS011;1952;50.872;6.692;2023-04-28T02:36:07;6.63;;;5.87;;
3873;SDS011;1952;50.872;6.692;2023-04-28T02:38:35;12.53;;;8.83;;
3873;SDS011;1952;50.872;6.692;2023-04-28T02:41:04;7.77;;;6.97;;
3873;SDS011;1952;50.872;6.692;2023-04-28T02:43:34;9.57;;;7.90;;
3873;SDS011;1952;50.872;6.692;2023-04-28T02:46:03;7.37;;;6.40;;
3873;SDS011;1952;50.872;6.692;2023-04-28T02:48:31;8.47;;;7.67;;
3873;SDS011;1952;50.872;6.692;2023-04-28T02:51:02;8.60;;;7.70;;
3873;SDS011;1952;50.872;6.692;2023-04-28T02:53:30;8.10;;;7.40;;
3873;SDS011;1952;50.872;6.692;2023-04-28T02:55:59;7.90;;;6.87;;
3873;SDS011;1952;50.872;6.692;2023-04-28T02:58:29;8.40;;;7.70;;
3873;SDS011;1952;50.872;6.692;2023-04-28T03:00:57;7.90;;;7.10;;
3873;SDS011;1952;50.872;6.692;2023-04-28T03:03:26;6.83;;;6.23;;
3873;SDS011;1952;50.872;6.692;2023-04-28T03:05:54;6.97;;;6.47;;
3873;SDS011;1952;50.872;6.692;2023-04-28T03:08:24;8.53;;;7.73;;
3873;SDS011;1952;50.872;6.692;2023-04-28T03:10:52;6.57;;;5.97;;
3873;SDS011;1952;50.872;6.692;2023-04-28T03:13:21;8.10;;;7.13;;
3873;SDS011;1952;50.872;6.692;2023-04-28T03:15:49;9.13;;;8.23;;
3873;SDS011;1952;50.872;6.692;2023-04-28T03:18:17;8.50;;;7.03;;
3873;SDS011;1952;50.872;6.692;2023-04-28T03:20:46;13.53;;;7.43;;
3873;SDS011;1952;50.872;6.692;2023-04-28T03:23:14;7.63;;;6.93;;
3873;SDS011;1952;50.872;6.692;2023-04-28T03:25:43;10.73;;;7.83;;
3873;SDS011;1952;50.872;6.692;2023-04-28T03:28:12;8.00;;;7.30;;
3873;SDS011;1952;50.872;6.692;2023-04-28T03:30:40;8.10;;;6.73;;
3873;SDS011;1952;50.872;6.692;2023-04-28T03:33:08;8.07;;;7.37;;
3873;SDS011;1952;50.872;6.692;2023-04-28T03:35:36;7.30;;;6.60;;
3873;SDS011;1952;50.872;6.692;2023-04-28T03:38:05;6.90;;;6.37;;
3873;SDS011;1952;50.872;6.692;2023-04-28T03:40:33;7.93;;;6.10;;
3873;SDS011;1952;50.872;6.692;2023-04-28T03:43:03;6.97;;;6.33;;
3873;SDS011;1952;50.872;6.692;2023-04-28T03:45:31;9.90;;;7.73;;
3873;SDS011;1952;50.872;6.692;2023-04-28T03:48:00;8.70;;;7.90;;
3873;SDS011;1952;50.872;6.692;2023-04-28T03:50:28;7.33;;;6.50;;
3873;SDS011;1952;50.872;6.692;2023-04-28T03:52:56;8.43;;;7.73;;
3873;SDS011;1952;50.872;6.692;2023-04-28T03:55:24;9.77;;;8.77;;
3873;SDS011;1952;50.872;6.692;2023-04-28T03:57:53;9.87;;;8.63;;
3873;SDS011;1952;50.872;6.692;2023-04-28T04:00:22;8.73;;;7.83;;
3873;SDS011;1952;50.872;6.692;2023-04-28T04:02:51;8.20;;;7.40;;
3873;SDS011;1952;50.872;6.692;2023-04-28T04:05:19;8.83;;;7.33;;
3873;SDS011;1952;50.872;6.692;2023-04-28T04:07:47;12.33;;;8.93;;
3873;SDS011;1952;50.872;6.692;2023-04-28T04:10:16;10.90;;;9.53;;
3873;SDS011;1952;50.872;6.692;2023-04-28T04:12:44;11.80;;;9.27;;
3873;SDS011;1952;50.872;6.692;2023-04-28T04:15:12;9.30;;;8.43;;
3873;SDS011;1952;50.872;6.692;2023-04-28T04:17:42;12.37;;;10.23;;
3873;SDS011;1952;50.872;6.692;2023-04-28T04:20:10;9.63;;;8.40;;
3873;SDS011;1952;50.872;6.692;2023-04-28T04:22:38;12.90;;;10.97;;
3873;SDS011;1952;50.872;6.692;2023-04-28T04:25:07;9.20;;;8.40;;
3873;SDS011;1952;50.872;6.692;2023-04-28T04:27:35;10.30;;;9.30;;
3873;SDS011;1952;50.872;6.692;2023-04-28T04:30:04;9.23;;;7.10;;
3873;SDS011;1952;50.872;6.692;2023-04-28T04:32:32;11.50;;;10.23;;
3873;SDS011;1952;50.872;6.692;2023-04-28T04:35:02;10.70;;;9.63;;
3873;SDS011;1952;50.872;6.692;2023-04-28T04:37:31;13.03;;;8.43;;
3873;SDS011;1952;50.872;6.692;2023-04-28T04:40:00;9.03;;;8.07;;
3873;SDS011;1952;50.872;6.692;2023-04-28T04:42:29;9.03;;;8.23;;
3873;SDS011;1952;50.872;6.692;2023-04-28T04:44:57;8.47;;;7.67;;
3873;SDS011;1952;50.872;6.692;2023-04-28T04:47:25;10.57;;;8.77;;
3873;SDS011;1952;50.872;6.692;2023-04-28T04:49:54;12.00;;;9.10;;
3873;SDS011;1952;50.872;6.692;2023-04-28T04:52:24;19.00;;;12.53;;
3873;SDS011;1952;50.872;6.692;2023-04-28T04:54:52;16.87;;;12.50;;
3873;SDS011;1952;50.872;6.692;2023-04-28T04:57:21;12.57;;;11.23;;
3873;SDS011;1952;50.872;6.692;2023-04-28T04:59:50;12.63;;;11.20;;
3873;SDS011;1952;50.872;6.692;2023-04-28T05:02:18;11.17;;;9.93;;
3873;SDS011;1952;50.872;6.692;2023-04-28T05:04:47;12.30;;;11.00;;
3873;SDS011;1952;50.872;6.692;2023-04-28T05:07:15;10.37;;;9.30;;
3873;SDS011;1952;50.872;6.692;2023-04-28T05:09:45;12.27;;;11.00;;
3873;SDS011;1952;50.872;6.692;2023-04-28T05:12:13;10.40;;;9.30;;
3873;SDS011;1952;50.872;6.692;2023-04-28T05:14:42;11.63;;;10.30;;
3873;SDS011;1952;50.872;6.692;2023-04-28T05:17:10;8.93;;;7.97;;
3873;SDS011;1952;50.872;6.692;2023-04-28T05:19:53;12.57;;;9.30;;
3873;SDS011;1952;50.872;6.692;2023-04-28T05:22:21;13.43;;;9.80;;
3873;SDS011;1952;50.872;6.692;2023-04-28T05:24:52;10.03;;;8.60;;
3873;SDS011;1952;50.872;6.692;2023-04-28T05:27:20;11.90;;;8.63;;
3873;SDS011;1952;50.872;6.692;2023-04-28T05:29:49;10.90;;;9.00;;
3873;SDS011;1952;50.872;6.692;2023-04-28T05:32:17;12.07;;;9.07;;
3873;SDS011;1952;50.872;6.692;2023-04-28T05:34:46;9.07;;;8.20;;
3873;SDS011;1952;50.872;6.692;2023-04-28T05:37:15;9.90;;;8.07;;
3873;SDS011;1952;50.872;6.692;2023-04-28T05:39:43;11.53;;;8.80;;
3873;SDS011;1952;50.872;6.692;2023-04-28T05:42:13;10.90;;;8.00;;
3873;SDS011;1952;50.872;6.692;2023-04-28T05:44:42;10.10;;;9.10;;
3873;SDS011;1952;50.872;6.692;2023-04-28T05:47:11;9.17;;;8.27;;
3873;SDS011;1952;50.872;6.692;2023-04-28T05:49:40;10.77;;;9.40;;
3873;SDS011;1952;50.872;6.692;2023-04-28T05:52:09;10.33;;;9.27;;
3873;SDS011;1952;50.872;6.692;2023-04-28T06:31:58;8.27;;;7.43;;
3873;SDS011;1952;50.872;6.692;2023-04-28T06:34:31;9.63;;;7.80;;
3873;SDS011;1952;50.872;6.692;2023-04-28T06:37:01;8.50;;;7.70;;
3873;SDS011;1952;50.872;6.692;2023-04-28T06:39:30;7.60;;;6.90;;
3873;SDS011;1952;50.872;6.692;2023-04-28T06:41:58;8.90;;;7.67;;
3873;SDS011;1952;50.872;6.692;2023-04-28T06:44:29;13.20;;;7.63;;
3873;SDS011;1952;50.872;6.692;2023-04-28T06:47:08;8.23;;;7.40;;
3873;SDS011;1952;50.872;6.692;2023-04-28T06:49:37;8.97;;;7.80;;
3873;SDS011;1952;50.872;6.692;2023-04-28T06:52:11;10.30;;;8.50;;
3873;SDS011;1952;50.872;6.692;2023-04-28T06:54:40;10.53;;;9.50;;
3873;SDS011;1952;50.872;6.692;2023-04-28T06:57:09;9.73;;;8.47;;
3873;SDS011;1952;50.872;6.692;2023-04-28T06:59:37;9.47;;;8.40;;
3873;SDS011;1952;50.872;6.692;2023-04-28T07:02:10;11.63;;;9.00;;
3873;SDS011;1952;50.872;6.692;2023-04-28T07:04:39;10.13;;;9.20;;
3873;SDS011;1952;50.872;6.692;2023-04-28T07:07:07;9.37;;;8.50;;
3873;SDS011;1952;50.872;6.692;2023-04-28T07:09:36;11.53;;;9.17;;
3873;SDS011;1952;50.872;6.692;2023-04-28T07:12:05;12.97;;;9.00;;
3873;SDS011;1952;50.872;6.692;2023-04-28T07:14:33;9.60;;;8.57;;
3873;SDS011;1952;50.872;6.692;2023-04-28T07:17:02;9.70;;;8.00;;
3873;SDS011;1952;50.872;6.692;2023-04-28T07:19:32;13.03;;;10.27;;
3873;SDS011;1952;50.872;6.692;2023-04-28T07:22:00;11.17;;;9.10;;
3873;SDS011;1952;50.872;6.692;2023-04-28T07:24:29;9.10;;;8.03;;
3873;SDS011;1952;50.872;6.692;2023-04-28T07:26:59;8.17;;;7.17;;
3873;SDS011;1952;50.872;6.692;2023-04-28T07:29:30;9.30;;;7.60;;
3873;SDS011;1952;50.872;6.692;2023-04-28T07:32:00;10.30;;;9.30;;
3873;SDS011;1952;50.872;6.692;2023-04-28T07:34:34;9.80;;;8.80;;
3873;SDS011;1952;50.872;6.692;2023-04-28T07:37:04;8.60;;;7.70;;
3873;SDS011;1952;50.872;6.692;2023-04-28T07:39:32;8.87;;;7.57;;
3873;SDS011;1952;50.872;6.692;2023-04-28T07:42:01;9.97;;;8.97;;
3873;SDS011;1952;50.872;6.692;2023-04-28T07:44:30;9.60;;;7.90;;
3873;SDS011;1952;50.872;6.692;2023-04-28T07:46:59;7.73;;;7.03;;
3873;SDS011;1952;50.872;6.692;2023-04-28T07:49:28;10.43;;;9.33;;
3873;SDS011;1952;50.872;6.692;2023-04-28T07:52:04;8.30;;;7.60;;
3873;SDS011;1952;50.872;6.692;2023-04-28T07:54:32;10.20;;;9.20;;
3873;SDS011;1952;50.872;6.692;2023-04-28T07:57:02;10.00;;;7.80;;
3873;SDS011;1952;50.872;6.692;2023-04-28T07:59:32;9.03;;;8.23;;
3873;SDS011;1952;50.872;6.692;2023-04-28T08:02:01;13.30;;;9.50;;
3873;SDS011;1952;50.872;6.692;2023-04-28T08:04:31;13.37;;;9.57;;
3873;SDS011;1952;50.872;6.692;2023-04-28T08:07:02;10.50;;;9.60;;
3873;SDS011;1952;50.872;6.692;2023-04-28T08:09:30;10.60;;;9.60;;
3873;SDS011;1952;50.872;6.692;2023-04-28T08:12:01;10.23;;;8.93;;
3873;SDS011;1952;50.872;6.692;2023-04-28T08:14:29;11.10;;;9.97;;
3873;SDS011;1952;50.872;6.692;2023-04-28T08:16:58;11.47;;;9.30;;
3873;SDS011;1952;50.872;6.692;2023-04-28T08:19:26;10.17;;;8.50;;
3873;SDS011;1952;50.872;6.692;2023-04-28T08:21:55;8.00;;;7.30;;
3873;SDS011;1952;50.872;6.692;2023-04-28T08:24:26;9.83;;;8.83;;
3873;SDS011;1952;50.872;6.692;2023-04-28T08:27:00;10.03;;;9.10;;
3873;SDS011;1952;50.872;6.692;2023-04-28T08:29:29;9.17;;;8.37;;
3873;SDS011;1952;50.872;6.692;2023-04-28T08:31:58;10.47;;;9.23;;
3873;SDS011;1952;50.872;6.692;2023-04-28T08:34:30;10.40;;;9.40;;
3873;SDS011;1952;50.872;6.692;2023-04-28T08:36:59;11.20;;;10.10;;
3873;SDS011;1952;50.872;6.692;2023-04-28T08:39:35;13.33;;;10.47;;
3873;SDS011;1952;50.872;6.692;2023-04-28T08:42:03;9.90;;;8.20;;
3873;SDS011;1952;50.872;6.692;2023-04-28T08:44:33;11.13;;;10.00;;
3873;SDS011;1952;50.872;6.692;2023-04-28T08:47:08;8.37;;;7.57;;
3873;SDS011;1952;50.872;6.692;2023-04-28T08:49:39;8.30;;;7.60;;
3873;SDS011;1952;50.872;6.692;2023-04-28T08:52:09;9.97;;;7.60;;
3873;SDS011;1952;50.872;6.692;2023-04-28T08:54:42;9.70;;;8.70;;
3873;SDS011;1952;50.872;6.692;2023-04-28T08:57:11;12.63;;;11.33;;
3873;SDS011;1952;50.872;6.692;2023-04-28T08:59:40;11.30;;;8.77;;
3873;SDS011;1952;50.872;6.692;2023-04-28T09:02:08;11.90;;;10.70;;
3873;SDS011;1952;50.872;6.692;2023-04-28T09:04:41;9.63;;;7.57;;
3873;SDS011;1952;50.872;6.692;2023-04-28T09:07:12;11.80;;;10.40;;
3873;SDS011;1952;50.872;6.692;2023-04-28T09:09:44;10.20;;;9.30;;
3873;SDS011;1952;50.872;6.692;2023-04-28T09:12:12;13.47;;;11.40;;
3873;SDS011;1952;50.872;6.692;2023-04-28T09:14:41;9.27;;;8.40;;
3873;SDS011;1952;50.872;6.692;2023-04-28T09:17:10;10.10;;;9.10;;
3873;SDS011;1952;50.872;6.692;2023-04-28T09:19:39;9.20;;;8.27;;
3873;SDS011;1952;50.872;6.692;2023-04-28T09:22:09;13.27;;;7.90;;
3873;SDS011;1952;50.872;6.692;2023-04-28T09:24:53;9.73;;;8.90;;
3873;SDS011;1952;50.872;6.692;2023-04-28T09:27:25;10.20;;;9.20;;
3873;SDS011;1952;50.872;6.692;2023-04-28T09:29:56;10.83;;;9.73;;
3873;SDS011;1952;50.872;6.692;2023-04-28T09:32:25;14.60;;;10.77;;
3873;SDS011;1952;50.872;6.692;2023-04-28T09:34:56;10.00;;;9.10;;
3873;SDS011;1952;50.872;6.692;2023-04-28T09:37:26;11.63;;;10.37;;
3873;SDS011;1952;50.872;6.692;2023-04-28T09:40:02;12.77;;;10.90;;
3873;SDS011;1952;50.872;6.692;2023-04-28T09:42:32;15.23;;;12.20;;
3873;SDS011;1952;50.872;6.692;2023-04-28T09:45:00;14.20;;;10.60;;
3873;SDS011;1952;50.872;6.692;2023-04-28T09:47:30;12.97;;;11.37;;
3873;SDS011;1952;50.872;6.692;2023-04-28T09:50:03;11.53;;;10.43;;
3873;SDS011;1952;50.872;6.692;2023-04-28T09:52:32;11.80;;;10.70;;
3873;SDS011;1952;50.872;6.692;2023-04-28T09:55:05;9.30;;;8.30;;
3873;SDS011;1952;50.872;6.692;2023-04-28T09:57:35;11.93;;;10.13;;
3873;SDS011;1952;50.872;6.692;2023-04-28T10:00:03;11.93;;;8.10;;
3873;SDS011;1952;50.872;6.692;2023-04-28T10:02:33;8.80;;;8.10;;
3873;SDS011;1952;50.872;6.692;2023-04-28T10:05:05;8.63;;;7.83;;
3873;SDS011;1952;50.872;6.692;2023-04-28T10:07:36;8.37;;;7.67;;
3873;SDS011;1952;50.872;6.692;2023-04-28T10:10:07;7.77;;;6.97;;
3873;SDS011;1952;50.872;6.692;2023-04-28T10:12:37;10.20;;;8.33;;
3873;SDS011;1952;50.872;6.692;2023-04-28T10:15:14;8.10;;;7.30;;
3873;SDS011;1952;50.872;6.692;2023-04-28T10:17:42;7.80;;;7.10;;
3873;SDS011;1952;50.872;6.692;2023-04-28T10:20:12;7.87;;;7.17;;
3873;SDS011;1952;50.872;6.692;2023-04-28T10:22:49;8.77;;;7.97;;
3873;SDS011;1952;50.872;6.692;2023-04-28T10:25:26;7.73;;;7.03;;
3873;SDS011;1952;50.872;6.692;2023-04-28T10:27:55;7.30;;;6.60;;
3873;SDS011;1952;50.872;6.692;2023-04-28T10:30:25;7.10;;;6.40;;
3873;SDS011;1952;50.872;6.692;2023-04-28T10:35:42;6.90;;;6.20;;
3873;SDS011;1952;50.872;6.692;2023-04-28T10:38:11;6.77;;;6.27;;
3873;SDS011;1952;50.872;6.692;2023-04-28T10:40:42;6.63;;;6.03;;
3873;SDS011;1952;50.872;6.692;2023-04-28T10:43:10;8.10;;;7.10;;
3873;SDS011;1952;50.872;6.692;2023-04-28T10:51:29;6.43;;;5.93;;
3873;SDS011;1952;50.872;6.692;2023-04-28T10:59:41;6.50;;;4.77;;
3873;SDS011;1952;50.872;6.692;2023-04-28T11:05:09;4.60;;;4.20;;
3873;SDS011;1952;50.872;6.692;2023-04-28T11:07:37;4.33;;;3.83;;
3873;SDS011;1952;50.872;6.692;2023-04-28T11:10:06;4.33;;;4.03;;
3873;SDS011;1952;50.872;6.692;2023-04-28T11:12:34;5.17;;;4.70;;
3873;SDS011;1952;50.872;6.692;2023-04-28T11:15:14;5.43;;;5.03;;
3873;SDS011;1952;50.872;6.692;2023-04-28T11:17:42;5.20;;;4.80;;
3873;SDS011;1952;50.872;6.692;2023-04-28T11:20:11;4.27;;;3.97;;
3873;SDS011;1952;50.872;6.692;2023-04-28T11:22:40;4.83;;;4.43;;
3873;SDS011;1952;50.872;6.692;2023-04-28T11:25:08;4.13;;;3.73;;
3873;SDS011;1952;50.872;6.692;2023-04-28T11:27:37;3.93;;;3.63;;
3873;SDS011;1952;50.872;6.692;2023-04-28T11:30:19;4.97;;;4.57;;
3873;SDS011;1952;50.872;6.692;2023-04-28T11:32:49;4.10;;;3.80;;
3873;SDS011;1952;50.872;6.692;2023-04-28T11:35:17;4.00;;;3.70;;
3873;SDS011;1952;50.872;6.692;2023-04-28T11:37:46;4.13;;;3.73;;
3873;SDS011;1952;50.872;6.692;2023-04-28T11:40:29;3.60;;;3.30;;
3873;SDS011;1952;50.872;6.692;2023-04-28T11:42:58;3.67;;;3.37;;
3873;SDS011;1952;50.872;6.692;2023-04-28T11:45:30;3.53;;;3.23;;
3873;SDS011;1952;50.872;6.692;2023-04-28T11:47:58;3.77;;;3.37;;
3873;SDS011;1952;50.872;6.692;2023-04-28T11:50:35;5.10;;;3.60;;
3873;SDS011;1952;50.872;6.692;2023-04-28T11:53:04;4.23;;;3.83;;
3873;SDS011;1952;50.872;6.692;2023-04-28T12:32:39;3.43;;;3.13;;
3873;SDS011;1952;50.872;6.692;2023-04-28T12:35:08;3.27;;;2.97;;
3873;SDS011;1952;50.872;6.692;2023-04-28T12:37:37;3.87;;;3.57;;
3873;SDS011;1952;50.872;6.692;2023-04-28T12:40:07;4.13;;;3.80;;
3873;SDS011;1952;50.872;6.692;2023-04-28T12:42:35;4.40;;;4.00;;
3873;SDS011;1952;50.872;6.692;2023-04-28T12:45:04;3.60;;;3.30;;
3873;SDS011;1952;50.872;6.692;2023-04-28T12:47:34;4.63;;;4.20;;
3873;SDS011;1952;50.872;6.692;2023-04-28T12:50:05;3.90;;;3.60;;
3873;SDS011;1952;50.872;6.692;2023-04-28T12:52:34;4.50;;;4.20;;
3873;SDS011;1952;50.872;6.692;2023-04-28T12:55:03;3.50;;;3.10;;
3873;SDS011;1952;50.872;6.692;2023-04-28T12:57:32;3.30;;;3.10;;
3873;SDS011;1952;50.872;6.692;2023-04-28T13:00:05;3.97;;;3.43;;
3873;SDS011;1952;50.872;6.692;2023-04-28T13:02:34;4.50;;;2.87;;
3873;SDS011;1952;50.872;6.692;2023-04-28T13:05:05;2.83;;;2.63;;
3873;SDS011;1952;50.872;6.692;2023-04-28T13:07:34;2.70;;;2.50;;
3873;SDS011;1952;50.872;6.692;2023-04-28T13:10:04;3.57;;;3.27;;
3873;SDS011;1952;50.872;6.692;2023-04-28T13:12:34;3.93;;;3.53;;
3873;SDS011;1952;50.872;6.692;2023-04-28T13:15:03;3.93;;;3.50;;
3873;SDS011;1952;50.872;6.692;2023-04-28T13:17:31;5.07;;;2.97;;
3873;SDS011;1952;50.872;6.692;2023-04-28T13:20:00;3.00;;;2.70;;
3873;SDS011;1952;50.872;6.692;2023-04-28T13:22:33;3.80;;;3.47;;
3873;SDS011;1952;50.872;6.692;2023-04-28T13:25:02;3.23;;;2.93;;
3873;SDS011;1952;50.872;6.692;2023-04-28T13:27:31;6.13;;;4.30;;
3873;SDS011;1952;50.872;6.692;2023-04-28T13:29:59;3.10;;;2.90;;
3873;SDS011;1952;50.872;6.692;2023-04-28T13:32:29;3.20;;;3.00;;
3873;SDS011;1952;50.872;6.692;2023-04-28T13:35:06;3.40;;;3.10;;
3873;SDS011;1952;50.872;6.692;2023-04-28T13:37:38;3.43;;;3.23;;
3873;SDS011;1952;50.872;6.692;2023-04-28T13:40:11;3.30;;;3.10;;
3873;SDS011;1952;50.872;6.692;2023-04-28T13:42:39;3.67;;;2.80;;
3873;SDS011;1952;50.872;6.692;2023-04-28T13:45:08;3.63;;;3.33;;
3873;SDS011;1952;50.872;6.692;2023-04-28T13:47:37;3.07;;;2.87;;
3873;SDS011;1952;50.872;6.692;2023-04-28T13:50:05;3.00;;;2.80;;
3873;SDS011;1952;50.872;6.692;2023-04-28T13:52:34;3.23;;;2.57;;
3873;SDS011;1952;50.872;6.692;2023-04-28T13:55:04;4.23;;;2.57;;
3873;SDS011;1952;50.872;6.692;2023-04-28T13:57:33;2.80;;;2.60;;
3873;SDS011;1952;50.872;6.692;2023-04-28T14:00:19;3.33;;;3.10;;
3873;SDS011;1952;50.872;6.692;2023-04-28T14:02:47;2.97;;;2.77;;
3873;SDS011;1952;50.872;6.692;2023-04-28T14:05:16;2.90;;;2.40;;
3873;SDS011;1952;50.872;6.692;2023-04-28T14:07:47;2.43;;;2.23;;
3873;SDS011;1952;50.872;6.692;2023-04-28T14:10:17;2.03;;;1.93;;
3873;SDS011;1952;50.872;6.692;2023-04-28T14:12:59;2.77;;;2.57;;
3873;SDS011;1952;50.872;6.692;2023-04-28T14:15:27;2.13;;;2.00;;
3873;SDS011;1952;50.872;6.692;2023-04-28T14:17:56;2.17;;;1.97;;
3873;SDS011;1952;50.872;6.692;2023-04-28T14:20:24;2.10;;;2.00;;
3873;SDS011;1952;50.872;6.692;2023-04-28T14:22:53;2.10;;;2.00;;
3873;SDS011;1952;50.872;6.692;2023-04-28T14:25:23;2.30;;;2.20;;
3873;SDS011;1952;50.872;6.692;2023-04-28T14:27:51;2.10;;;1.97;;
3873;SDS011;1952;50.872;6.692;2023-04-28T14:30:20;2.27;;;2.07;;
3873;SDS011;1952;50.872;6.692;2023-04-28T14:32:48;3.10;;;1.77;;
3873;SDS011;1952;50.872;6.692;2023-04-28T14:35:17;2.20;;;2.00;;
3873;SDS011;1952;50.872;6.692;2023-04-28T14:37:46;2.67;;;2.47;;
3873;SDS011;1952;50.872;6.692;2023-04-28T14:40:14;2.80;;;2.27;;
3873;SDS011;1952;50.872;6.692;2023-04-28T14:42:44;2.43;;;2.23;;
3873;SDS011;1952;50.872;6.692;2023-04-28T14:45:12;2.80;;;2.40;;
3873;SDS011;1952;50.872;6.692;2023-04-28T14:47:41;2.80;;;2.60;;
3873;SDS011;1952;50.872;6.692;2023-04-28T14:50:12;3.37;;;2.20;;
3873;SDS011;1952;50.872;6.692;2023-04-28T14:53:07;2.50;;;2.30;;
3873;SDS011;1952;50.872;6.692;2023-04-28T14:55:50;2.77;;;2.20;;
3873;SDS011;1952;50.872;6.692;2023-04-28T14:58:23;2.80;;;2.60;;
3873;SDS011;1952;50.872;6.692;2023-04-28T15:00:51;2.33;;;2.13;;
3873;SDS011;1952;50.872;6.692;2023-04-28T15:03:19;2.20;;;2.00;;
3873;SDS011;1952;50.872;6.692;2023-04-28T15:05:48;2.30;;;2.10;;
3873;SDS011;1952;50.872;6.692;2023-04-28T15:08:17;3.53;;;1.90;;
3873;SDS011;1952;50.872;6.692;2023-04-28T15:10:46;2.20;;;2.10;;
3873;SDS011;1952;50.872;6.692;2023-04-28T15:13:15;2.13;;;1.93;;
3873;SDS011;1952;50.872;6.692;2023-04-28T15:15:45;5.50;;;1.97;;
3873;SDS011;1952;50.872;6.692;2023-04-28T15:18:14;2.30;;;2.10;;
3873;SDS011;1952;50.872;6.692;2023-04-28T15:20:42;1.63;;;1.47;;
3873;SDS011;1952;50.872;6.692;2023-04-28T15:23:11;1.73;;;1.63;;
3873;SDS011;1952;50.872;6.692;2023-04-28T15:25:40;1.63;;;1.37;;
3873;SDS011;1952;50.872;6.692;2023-04-28T15:28:09;2.07;;;1.97;;
3873;SDS011;1952;50.872;6.692;2023-04-28T15:30:40;4.20;;;1.93;;
3873;SDS011;1952;50.872;6.692;2023-04-28T15:33:23;2.97;;;2.70;;
3873;SDS011;1952;50.872;6.692;2023-04-28T15:35:52;3.03;;;2.83;;
3873;SDS011;1952;50.872;6.692;2023-04-28T15:38:25;4.87;;;2.90;;
3873;SDS011;1952;50.872;6.692;2023-04-28T15:41:12;3.10;;;2.60;;
3873;SDS011;1952;50.872;6.692;2023-04-28T15:43:48;4.37;;;2.83;;
3873;SDS011;1952;50.872;6.692;2023-04-28T15:46:35;3.63;;;3.10;;
3873;SDS011;1952;50.872;6.692;2023-04-28T15:49:23;3.67;;;2.90;;
3873;SDS011;1952;50.872;6.692;2023-04-28T15:51:58;4.87;;;2.77;;
3873;SDS011;1952;50.872;6.692;2023-04-28T15:54:27;2.80;;;2.60;;
3873;SDS011;1952;50.872;6.692;2023-04-28T15:57:12;4.57;;;2.80;;
3873;SDS011;1952;50.872;6.692;2023-04-28T15:59:57;3.27;;;2.93;;
3873;SDS011;1952;50.872;6.692;2023-04-28T16:02:34;3.10;;;2.90;;
3873;SDS011;1952;50.872;6.692;2023-04-28T16:05:34;3.27;;;3.00;;
3873;SDS011;1952;50.872;6.692;2023-04-28T16:08:05;4.73;;;3.77;;
3873;SDS011;1952;50.872;6.692;2023-04-28T16:13:42;4.37;;;4.07;;
3873;SDS011;1952;50.872;6.692;2023-04-28T16:16:20;4.00;;;3.70;;
3873;SDS011;1952;50.872;6.692;2023-04-28T16:19:26;4.87;;;3.17;;
3873;SDS011;1952;50.872;6.692;2023-04-28T16:22:04;3.50;;;3.20;;
3873;SDS011;1952;50.872;6.692;2023-04-28T16:24:38;5.73;;;3.63;;
3873;SDS011;1952;50.872;6.692;2023-04-28T16:27:24;3.53;;;3.27;;
3873;SDS011;1952;50.872;6.692;2023-04-28T16:30:22;6.13;;;3.73;;
3873;SDS011;1952;50.872;6.692;2023-04-28T16:32:55;3.77;;;3.47;;
3873;SDS011;1952;50.872;6.692;2023-04-28T16:35:34;3.23;;;3.03;;
3873;SDS011;1952;50.872;6.692;2023-04-28T16:41:17;2.37;;;2.17;;
3873;SDS011;1952;50.872;6.692;2023-04-28T16:43:53;3.17;;;2.97;;
3873;SDS011;1952;50.872;6.692;2023-04-28T16:46:56;2.43;;;2.23;;
3873;SDS011;1952;50.872;6.692;2023-04-28T16:49:25;2.80;;;2.13;;
3873;SDS011;1952;50.872;6.692;2023-04-28T16:51:55;2.00;;;1.90;;
3873;SDS011;1952;50.872;6.692;2023-04-28T16:54:38;3.07;;;1.97;;
3873;SDS011;1952;50.872;6.692;2023-04-28T16:57:16;1.83;;;1.73;;
3873;SDS011;1952;50.872;6.692;2023-04-28T16:59:58;3.63;;;2.10;;
3873;SDS011;1952;50.872;6.692;2023-04-28T17:02:29;6.40;;;2.30;;
3873;SDS011;1952;50.872;6.692;2023-04-28T17:05:08;2.10;;;2.00;;
3873;SDS011;1952;50.872;6.692;2023-04-28T17:08:01;5.53;;;2.70;;
3873;SDS011;1952;50.872;6.692;2023-04-28T17:10:31;2.10;;;2.00;;
3873;SDS011;1952;50.872;6.692;2023-04-28T17:13:22;2.30;;;2.10;;
3873;SDS011;1952;50.872;6.692;2023-04-28T17:15:53;3.30;;;2.10;;
3873;SDS011;1952;50.872;6.692;2023-04-28T17:18:45;2.20;;;2.10;;
3873;SDS011;1952;50.872;6.692;2023-04-28T17:21:18;2.47;;;2.00;;
3873;SDS011;1952;50.872;6.692;2023-04-28T17:24:13;2.27;;;2.17;;
3873;SDS011;1952;50.872;6.692;2023-04-28T17:27:02;2.60;;;2.40;;
3873;SDS011;1952;50.872;6.692;2023-04-28T17:29:57;2.40;;;2.30;;
3873;SDS011;1952;50.872;6.692;2023-04-28T17:32:25;2.10;;;2.00;;
3873;SDS011;1952;50.872;6.692;2023-04-28T17:35:15;2.57;;;2.37;;
3873;SDS011;1952;50.872;6.692;2023-04-28T17:37:45;2.50;;;2.30;;
3873;SDS011;1952;50.872;6.692;2023-04-28T17:40:13;2.07;;;1.97;;